createdAt,value
2016-10-04T00:00:19.822Z,1022.28
2016-10-04T00:01:19.793Z,1022.33
2016-10-04T00:02:19.766Z,1022.31
2016-10-04T00:03:19.737Z,1022.34
2016-10-04T00:04:19.708Z,1022.36
2016-10-04T00:05:20.100Z,1022.38
2016-10-04T00:06:19.651Z,1022.38
2016-10-04T00:07:19.622Z,1022.36
2016-10-04T00:08:19.591Z,1022.38
2016-10-04T00:09:19.577Z,1022.41
2016-10-04T00:11:19.508Z,1022.41
2016-10-04T00:12:19.482Z,1022.41
2016-10-04T00:13:19.450Z,1022.38
2016-10-04T00:15:19.401Z,1022.45
2016-10-04T00:16:19.370Z,1022.46
2016-10-04T00:17:19.348Z,1022.45
2016-10-04T00:18:19.308Z,1022.46
2016-10-04T00:19:19.279Z,1022.44
2016-10-04T00:20:19.258Z,1022.5
2016-10-04T00:21:19.239Z,1022.51
2016-10-04T00:22:19.196Z,1022.5
2016-10-04T00:24:19.143Z,1022.55
2016-10-04T00:25:19.115Z,1022.55
2016-10-04T00:26:19.082Z,1022.56
2016-10-04T00:27:19.079Z,1022.61
2016-10-04T00:28:19.044Z,1022.61
2016-10-04T00:29:19.014Z,1022.65
2016-10-04T00:30:18.963Z,1022.65
2016-10-04T00:31:18.936Z,1022.67
2016-10-04T00:32:18.940Z,1022.65
2016-10-04T00:33:18.877Z,1022.63
2016-10-04T00:34:18.859Z,1022.64
2016-10-04T00:35:18.827Z,1022.6
2016-10-04T00:36:18.799Z,1022.59
2016-10-04T00:37:18.770Z,1022.66
2016-10-04T00:38:18.743Z,1022.63
2016-10-04T00:39:18.704Z,1022.6
2016-10-04T00:40:19.006Z,1022.65
2016-10-04T00:41:18.651Z,1022.67
2016-10-04T00:42:18.621Z,1022.69
2016-10-04T00:43:18.596Z,1022.7
2016-10-04T00:44:18.566Z,1022.7
2016-10-04T00:45:18.541Z,1022.7
2016-10-04T00:46:18.511Z,1022.68
2016-10-04T00:47:18.479Z,1022.7
2016-10-04T00:49:18.426Z,1022.7
2016-10-04T00:50:18.394Z,1022.7
2016-10-04T00:51:18.365Z,1022.7
2016-10-04T00:52:18.339Z,1022.75
2016-10-04T00:53:18.315Z,1022.74
2016-10-04T00:54:18.286Z,1022.74
2016-10-04T00:55:18.253Z,1022.75
2016-10-04T00:56:18.220Z,1022.74
2016-10-04T00:57:18.191Z,1022.78
2016-10-04T00:58:18.168Z,1022.79
2016-10-04T00:59:18.156Z,1022.78
2016-10-04T01:00:18.550Z,1022.78
2016-10-04T01:01:18.093Z,1022.79
2016-10-04T01:02:18.109Z,1022.8
2016-10-04T01:03:18.030Z,1022.84
2016-10-04T01:04:17.993Z,1022.8
2016-10-04T01:05:17.962Z,1022.78
2016-10-04T01:06:17.946Z,1022.76
2016-10-04T01:08:17.906Z,1022.75
2016-10-04T01:09:17.855Z,1022.85
2016-10-04T01:10:17.828Z,1022.91
2016-10-04T01:11:17.805Z,1022.91
2016-10-04T01:12:17.777Z,1022.93
2016-10-04T01:13:17.745Z,1022.96
2016-10-04T01:14:17.706Z,1022.96
2016-10-04T01:15:17.692Z,1022.97
2016-10-04T01:16:17.658Z,1023
2016-10-04T01:17:17.633Z,1022.99
2016-10-04T01:18:17.596Z,1022.99
2016-10-04T01:19:17.565Z,1022.95
2016-10-04T01:20:17.535Z,1022.96
2016-10-04T01:21:17.510Z,1022.97
2016-10-04T01:22:17.480Z,1022.98
2016-10-04T01:23:17.449Z,1023.02
2016-10-04T01:24:17.424Z,1023.01
2016-10-04T01:25:17.387Z,1023.01
2016-10-04T01:26:17.363Z,1023.04
2016-10-04T01:27:17.332Z,1023.09
2016-10-04T01:28:17.317Z,1023.06
2016-10-04T01:29:17.276Z,1023.07
2016-10-04T01:30:17.256Z,1023.12
2016-10-04T01:31:17.213Z,1023.11
2016-10-04T01:32:17.197Z,1023.1
2016-10-04T01:33:17.263Z,1023.13
2016-10-04T01:34:17.133Z,1023.13
2016-10-04T01:35:17.106Z,1023.12
2016-10-04T01:36:17.076Z,1023.14
2016-10-04T01:37:17.042Z,1023.14
2016-10-04T01:38:17.039Z,1023.14
2016-10-04T01:39:16.995Z,1023.17
2016-10-04T01:41:16.934Z,1023.23
2016-10-04T01:42:16.932Z,1023.25
2016-10-04T01:43:16.922Z,1023.24
2016-10-04T01:44:16.849Z,1023.23
2016-10-04T01:45:16.811Z,1023.29
2016-10-04T01:46:16.782Z,1023.29
2016-10-04T01:48:16.724Z,1023.27
2016-10-04T01:49:16.706Z,1023.29
2016-10-04T01:50:16.671Z,1023.31
2016-10-04T01:51:16.642Z,1023.34
2016-10-04T01:52:16.614Z,1023.34
2016-10-04T01:53:16.589Z,1023.35
2016-10-04T01:54:16.589Z,1023.33
2016-10-04T01:55:16.529Z,1023.39
2016-10-04T01:56:16.501Z,1023.43
2016-10-04T01:57:16.472Z,1023.42
2016-10-04T01:58:16.441Z,1023.39
2016-10-04T01:59:16.409Z,1023.39
2016-10-04T02:00:16.378Z,1023.39
2016-10-04T02:01:16.354Z,1023.39
2016-10-04T02:02:16.324Z,1023.37
2016-10-04T02:03:16.295Z,1023.39
2016-10-04T02:04:16.266Z,1023.34
2016-10-04T02:05:16.237Z,1023.34
2016-10-04T02:06:16.206Z,1023.37
2016-10-04T02:07:16.174Z,1023.38
2016-10-04T02:08:16.228Z,1023.37
2016-10-04T02:09:16.116Z,1023.4
2016-10-04T02:10:16.099Z,1023.4
2016-10-04T02:11:16.080Z,1023.42
2016-10-04T02:12:16.034Z,1023.45
2016-10-04T02:13:16.012Z,1023.48
2016-10-04T02:14:15.975Z,1023.52
2016-10-04T02:16:15.929Z,1023.49
2016-10-04T02:17:15.889Z,1023.45
2016-10-04T02:18:15.865Z,1023.45
2016-10-04T02:19:15.850Z,1023.45
2016-10-04T02:20:15.803Z,1023.46
2016-10-04T02:21:15.773Z,1023.48
2016-10-04T02:22:15.743Z,1023.46
2016-10-04T02:23:15.723Z,1023.4
2016-10-04T02:24:15.689Z,1023.45
2016-10-04T02:25:15.658Z,1023.43
2016-10-04T02:26:15.632Z,1023.39
2016-10-04T02:27:15.609Z,1023.32
2016-10-04T02:28:15.569Z,1023.36
2016-10-04T02:29:15.540Z,1023.3
2016-10-04T02:30:15.562Z,1023.22
2016-10-04T02:31:15.494Z,1023.29
2016-10-04T02:32:15.454Z,1023.28
2016-10-04T02:33:15.424Z,1023.27
2016-10-04T02:34:15.406Z,1023.26
2016-10-04T02:35:15.370Z,1023.28
2016-10-04T02:36:15.351Z,1023.27
2016-10-04T02:37:15.321Z,1023.3
2016-10-04T02:38:15.285Z,1023.29
2016-10-04T02:39:15.256Z,1023.27
2016-10-04T02:40:15.221Z,1023.28
2016-10-04T02:41:15.199Z,1023.22
2016-10-04T02:42:15.179Z,1023.23
2016-10-04T02:43:15.139Z,1023.27
2016-10-04T02:44:15.111Z,1023.32
2016-10-04T02:45:15.082Z,1023.35
2016-10-04T02:46:15.098Z,1023.37
2016-10-04T02:47:15.023Z,1023.37
2016-10-04T02:48:15.001Z,1023.34
2016-10-04T02:49:15.021Z,1023.38
2016-10-04T02:50:14.936Z,1023.36
2016-10-04T02:51:14.916Z,1023.32
2016-10-04T02:52:14.881Z,1023.32
2016-10-04T02:53:14.854Z,1023.25
2016-10-04T02:54:14.831Z,1023.28
2016-10-04T02:55:14.794Z,1023.28
2016-10-04T02:56:14.759Z,1023.24
2016-10-04T02:57:14.768Z,1023.19
2016-10-04T02:59:14.675Z,1023.24
2016-10-04T03:00:14.653Z,1023.28
2016-10-04T03:01:14.621Z,1023.31
2016-10-04T03:02:14.592Z,1023.31
2016-10-04T03:03:14.577Z,1023.32
2016-10-04T03:04:14.531Z,1023.35
2016-10-04T03:05:15.007Z,1023.34
2016-10-04T03:06:14.487Z,1023.34
2016-10-04T03:08:14.443Z,1023.4
2016-10-04T03:10:14.357Z,1023.46
2016-10-04T03:11:14.329Z,1023.49
2016-10-04T03:12:14.300Z,1023.45
2016-10-04T03:13:14.269Z,1023.45
2016-10-04T03:14:14.242Z,1023.43
2016-10-04T03:15:14.209Z,1023.43
2016-10-04T03:16:14.192Z,1023.48
2016-10-04T03:17:14.180Z,1023.46
2016-10-04T03:18:14.133Z,1023.49
2016-10-04T03:19:14.099Z,1023.46
2016-10-04T03:20:19.113Z,1023.47
2016-10-04T03:21:14.053Z,1023.45
2016-10-04T03:22:14.018Z,1023.47
2016-10-04T03:23:13.985Z,1023.43
2016-10-04T03:24:13.957Z,1023.47
2016-10-04T03:25:13.924Z,1023.47
2016-10-04T03:26:13.902Z,1023.45
2016-10-04T03:27:13.865Z,1023.44
2016-10-04T03:28:13.839Z,1023.4
2016-10-04T03:29:13.815Z,1023.47
2016-10-04T03:30:13.787Z,1023.52
2016-10-04T03:31:13.754Z,1023.53
2016-10-04T03:32:13.727Z,1023.56
2016-10-04T03:33:13.736Z,1023.57
2016-10-04T03:34:13.712Z,1023.56
2016-10-04T03:35:13.642Z,1023.56
2016-10-04T03:36:13.618Z,1023.52
2016-10-04T03:37:13.591Z,1023.53
2016-10-04T03:38:13.571Z,1023.57
2016-10-04T03:39:13.561Z,1023.54
2016-10-04T03:40:13.498Z,1023.54
2016-10-04T03:41:13.475Z,1023.55
2016-10-04T03:42:13.451Z,1023.56
2016-10-04T03:43:13.415Z,1023.57
2016-10-04T03:44:13.426Z,1023.55
2016-10-04T03:45:13.359Z,1023.57
2016-10-04T03:46:13.631Z,1023.53
2016-10-04T03:47:13.568Z,1023.55
2016-10-04T03:48:13.263Z,1023.57
2016-10-04T03:49:13.254Z,1023.56
2016-10-04T03:50:13.211Z,1023.48
2016-10-04T03:51:13.177Z,1023.52
2016-10-04T03:52:13.165Z,1023.51
2016-10-04T03:53:13.128Z,1023.5
2016-10-04T03:55:13.065Z,1023.51
2016-10-04T03:56:13.103Z,1023.52
2016-10-04T03:57:13.009Z,1023.48
2016-10-04T03:58:12.980Z,1023.51
2016-10-04T03:59:12.963Z,1023.56
2016-10-04T04:00:12.974Z,1023.59
2016-10-04T04:01:13.109Z,1023.56
2016-10-04T04:02:12.865Z,1023.57
2016-10-04T04:03:12.851Z,1023.54
2016-10-04T04:04:13.126Z,1023.58
2016-10-04T04:05:12.820Z,1023.57
2016-10-04T04:06:12.743Z,1023.61
2016-10-04T04:07:12.772Z,1023.64
2016-10-04T04:08:12.734Z,1023.62
2016-10-04T04:09:12.726Z,1023.63
2016-10-04T04:10:12.643Z,1023.62
2016-10-04T04:11:12.628Z,1023.62
2016-10-04T04:12:12.582Z,1023.65
2016-10-04T04:13:12.549Z,1023.68
2016-10-04T04:14:12.577Z,1023.67
2016-10-04T04:15:12.504Z,1023.67
2016-10-04T04:16:12.502Z,1023.67
2016-10-04T04:17:12.449Z,1023.68
2016-10-04T04:18:12.446Z,1023.67
2016-10-04T04:19:12.414Z,1023.68
2016-10-04T04:20:12.377Z,1023.68
2016-10-04T04:21:12.338Z,1023.67
2016-10-04T04:22:12.341Z,1023.65
2016-10-04T04:24:12.243Z,1023.7
2016-10-04T04:25:12.435Z,1023.68
2016-10-04T04:26:12.224Z,1023.73
2016-10-04T04:27:12.725Z,1023.72
2016-10-04T04:28:12.124Z,1023.71
2016-10-04T04:29:12.139Z,1023.72
2016-10-04T04:30:12.074Z,1023.73
2016-10-04T04:31:12.075Z,1023.76
2016-10-04T04:32:12.032Z,1023.72
2016-10-04T04:34:12.005Z,1023.75
2016-10-04T04:35:11.962Z,1023.8
2016-10-04T04:37:11.869Z,1023.77
2016-10-04T04:38:11.851Z,1023.75
2016-10-04T04:39:11.810Z,1023.75
2016-10-04T04:40:11.812Z,1023.8
2016-10-04T04:41:11.883Z,1023.79
2016-10-04T04:42:11.725Z,1023.81
2016-10-04T04:43:11.701Z,1023.83
2016-10-04T04:44:11.667Z,1023.82
2016-10-04T04:45:11.667Z,1023.81
2016-10-04T04:46:11.989Z,1023.81
2016-10-04T04:47:11.591Z,1023.77
2016-10-04T04:48:11.732Z,1023.76
2016-10-04T04:49:11.544Z,1023.78
2016-10-04T04:50:11.628Z,1023.75
2016-10-04T04:52:11.513Z,1023.78
2016-10-04T04:53:11.430Z,1023.75
2016-10-04T04:54:11.395Z,1023.72
2016-10-04T04:55:11.392Z,1023.76
2016-10-04T04:56:11.331Z,1023.78
2016-10-04T04:57:11.327Z,1023.81
2016-10-04T04:58:11.273Z,1023.77
2016-10-04T04:59:11.239Z,1023.73
2016-10-04T05:00:11.220Z,1023.76
2016-10-04T05:01:11.184Z,1023.78
2016-10-04T05:02:11.159Z,1023.77
2016-10-04T05:03:11.079Z,1023.8
2016-10-04T05:04:11.097Z,1023.78
2016-10-04T05:05:11.066Z,1023.79
2016-10-04T05:06:11.056Z,1023.79
2016-10-04T05:07:11.009Z,1023.83
2016-10-04T05:08:10.982Z,1023.83
2016-10-04T05:09:10.970Z,1023.85
2016-10-04T05:10:10.932Z,1023.84
2016-10-04T05:11:10.897Z,1023.85
2016-10-04T05:12:10.865Z,1023.88
2016-10-04T05:13:10.837Z,1023.85
2016-10-04T05:14:10.822Z,1023.88
2016-10-04T05:16:10.762Z,1023.85
2016-10-04T05:17:10.727Z,1023.87
2016-10-04T05:18:10.695Z,1023.87
2016-10-04T05:19:10.663Z,1023.84
2016-10-04T05:20:10.634Z,1023.85
2016-10-04T05:21:10.619Z,1023.87
2016-10-04T05:22:10.593Z,1023.85
2016-10-04T05:23:10.557Z,1023.81
2016-10-04T05:24:10.572Z,1023.79
2016-10-04T05:25:10.495Z,1023.8
2016-10-04T05:26:10.464Z,1023.85
2016-10-04T05:27:10.441Z,1023.86
2016-10-04T05:28:10.468Z,1023.88
2016-10-04T05:29:10.383Z,1023.86
2016-10-04T05:30:10.357Z,1023.88
2016-10-04T05:31:10.322Z,1023.89
2016-10-04T05:33:10.265Z,1023.86
2016-10-04T05:34:10.285Z,1023.92
2016-10-04T05:35:10.246Z,1023.94
2016-10-04T05:36:10.197Z,1023.93
2016-10-04T05:37:10.157Z,1023.96
2016-10-04T05:38:10.135Z,1023.9
2016-10-04T05:39:10.095Z,1023.98
2016-10-04T05:40:10.091Z,1023.96
2016-10-04T05:41:10.091Z,1023.98
2016-10-04T05:42:10.015Z,1023.98
2016-10-04T05:44:10.014Z,1024.01
2016-10-04T05:45:09.943Z,1024
2016-10-04T05:46:09.909Z,1024.01
2016-10-04T05:47:09.896Z,1023.99
2016-10-04T05:49:09.825Z,1024.01
2016-10-04T05:50:09.778Z,1024.01
2016-10-04T05:51:09.772Z,1024.01
2016-10-04T05:52:09.746Z,1024.01
2016-10-04T05:53:09.694Z,1024.03
2016-10-04T05:54:09.673Z,1024.01
2016-10-04T05:55:09.642Z,1024.03
2016-10-04T05:56:09.627Z,1024.03
2016-10-04T05:57:09.586Z,1024.04
2016-10-04T05:58:09.561Z,1024.04
2016-10-04T05:59:09.549Z,1024.11
2016-10-04T06:00:09.575Z,1024.09
2016-10-04T06:01:09.481Z,1024.11
2016-10-04T06:02:09.855Z,1024.11
2016-10-04T08:34:05.086Z,1024.97
2016-10-04T08:35:04.990Z,1024.98
2016-10-04T08:36:04.806Z,1024.95
2016-10-04T08:37:04.691Z,1024.96
2016-10-04T08:38:04.664Z,1024.98
2016-10-04T08:39:04.638Z,1024.98
2016-10-04T08:40:05.235Z,1024.95
2016-10-04T08:41:04.595Z,1025.02
2016-10-04T08:42:04.555Z,1025.05
2016-10-04T08:43:04.619Z,1025.05
2016-10-04T08:44:04.530Z,1025.09
2016-10-04T08:45:04.694Z,1025.06
2016-10-04T08:47:04.725Z,1025.09
2016-10-04T08:48:04.524Z,1025.08
2016-10-04T08:49:09.808Z,1025.04
2016-10-04T08:50:04.708Z,1025.06
2016-10-04T08:51:04.297Z,1025.04
2016-10-04T08:52:04.312Z,1025.08
2016-10-04T08:54:04.274Z,1025.07
2016-10-04T08:55:04.567Z,1025.12
2016-10-04T08:56:04.166Z,1025.15
2016-10-04T08:57:04.148Z,1025.13
2016-10-04T08:58:04.103Z,1025.15
2016-10-04T08:59:04.016Z,1025.17
2016-10-04T09:00:04.065Z,1025.18
2016-10-04T09:01:04.241Z,1025.17
2016-10-04T09:02:04.266Z,1025.16
2016-10-04T09:03:03.972Z,1025.19
2016-10-04T09:04:04.036Z,1025.13
2016-10-04T09:05:04.028Z,1025.22
2016-10-04T09:06:03.888Z,1025.15
2016-10-04T09:07:03.866Z,1025.16
2016-10-04T09:08:03.812Z,1025.17
2016-10-04T09:09:03.796Z,1025.13
2016-10-04T09:10:03.815Z,1025.17
2016-10-04T09:11:03.731Z,1025.16
2016-10-04T09:12:03.724Z,1025.14
2016-10-04T09:13:03.690Z,1025.14
2016-10-04T09:14:03.651Z,1025.19
2016-10-04T09:15:03.623Z,1025.15
2016-10-04T09:16:03.794Z,1025.18
2016-10-04T09:17:03.874Z,1025.14
2016-10-04T09:18:03.582Z,1025.15
2016-10-04T09:19:03.957Z,1025.18
2016-10-04T09:20:03.490Z,1025.15
2016-10-04T09:21:03.457Z,1025.18
2016-10-04T09:22:03.428Z,1025.18
2016-10-04T09:23:03.450Z,1025.19
2016-10-04T09:24:03.377Z,1025.18
2016-10-04T09:25:03.343Z,1025.18
2016-10-04T09:26:03.323Z,1025.2
2016-10-04T09:27:03.285Z,1025.2
2016-10-04T09:28:03.261Z,1025.19
2016-10-04T09:29:03.224Z,1025.2
2016-10-04T09:30:03.211Z,1025.22
2016-10-04T09:31:03.274Z,1025.18
2016-10-04T09:32:03.269Z,1025.21
2016-10-04T09:33:03.173Z,1025.23
2016-10-04T09:34:03.429Z,1025.21
2016-10-04T09:36:03.363Z,1025.15
2016-10-04T09:37:02.999Z,1025.14
2016-10-04T09:38:03.092Z,1025.14
2016-10-04T09:39:02.947Z,1025.23
2016-10-04T09:40:02.924Z,1025.19
2016-10-04T09:41:02.911Z,1025.22
2016-10-04T09:42:02.871Z,1025.25
2016-10-04T09:43:02.844Z,1025.28
2016-10-04T09:44:02.821Z,1025.23
2016-10-04T09:45:02.784Z,1025.29
2016-10-04T09:46:02.755Z,1025.23
2016-10-04T09:47:02.726Z,1025.25
2016-10-04T09:48:02.707Z,1025.23
2016-10-04T09:49:02.665Z,1025.21
2016-10-04T09:50:02.647Z,1025.21
2016-10-04T09:51:02.623Z,1025.18
2016-10-04T09:52:02.584Z,1025.22
2016-10-04T09:53:02.671Z,1025.23
2016-10-04T09:54:02.539Z,1025.19
2016-10-04T09:55:02.508Z,1025.19
2016-10-04T09:56:02.487Z,1025.2
2016-10-04T09:57:02.489Z,1025.24
2016-10-04T09:58:02.993Z,1025.18
2016-10-04T09:59:02.400Z,1025.2
2016-10-04T10:00:02.800Z,1025.21
2016-10-04T10:01:02.356Z,1025.25
2016-10-04T10:02:02.325Z,1025.24
2016-10-04T10:03:02.285Z,1025.21
2016-10-04T10:04:02.260Z,1025.21
2016-10-04T10:05:02.227Z,1025.19
2016-10-04T10:06:02.212Z,1025.29
2016-10-04T10:07:02.445Z,1025.27
2016-10-04T10:08:02.176Z,1025.24
2016-10-04T10:09:02.116Z,1025.27
2016-10-04T10:11:02.057Z,1025.25
2016-10-04T10:12:02.079Z,1025.27
2016-10-04T10:13:02.013Z,1025.3
2016-10-04T10:14:01.970Z,1025.23
2016-10-04T10:15:01.977Z,1025.24
2016-10-04T10:16:01.945Z,1025.21
2016-10-04T10:17:01.907Z,1025.24
2016-10-04T10:18:01.979Z,1025.27
2016-10-04T10:19:01.891Z,1025.21
2016-10-04T10:20:01.980Z,1025.25
2016-10-04T10:22:02.187Z,1025.14
2016-10-04T10:23:01.718Z,1025.23
2016-10-04T10:24:01.705Z,1025.19
2016-10-04T10:25:01.687Z,1025.22
2016-10-04T10:26:01.660Z,1025.33
2016-10-04T10:27:01.638Z,1025.21
2016-10-04T10:28:03.049Z,1025.21
2016-10-04T10:29:01.818Z,1025.22
2016-10-04T10:30:01.567Z,1025.15
2016-10-04T10:31:01.654Z,1025.15
2016-10-04T10:33:01.445Z,1025.2
2016-10-04T10:34:01.419Z,1025.17
2016-10-04T10:35:01.410Z,1025.13
2016-10-04T10:36:01.360Z,1025.17
2016-10-04T10:37:01.335Z,1025.09
2016-10-04T10:38:01.305Z,1025.13
2016-10-04T10:39:01.558Z,1025.12
2016-10-04T10:40:01.249Z,1025.16
2016-10-04T10:41:01.236Z,1025.21
2016-10-04T10:42:01.646Z,1025.22
2016-10-04T10:43:01.170Z,1025.17
2016-10-04T10:44:01.136Z,1025.12
2016-10-04T10:45:01.231Z,1025.22
2016-10-04T10:46:01.076Z,1025.17
2016-10-04T10:47:01.071Z,1025.11
2016-10-04T10:48:01.023Z,1025.17
2016-10-04T10:49:01.003Z,1025.17
2016-10-04T10:50:00.974Z,1025.12
2016-10-04T10:51:00.976Z,1025.05
2016-10-04T10:53:01.545Z,1025.05
2016-10-04T10:54:00.865Z,1025.04
2016-10-04T10:55:00.828Z,1025.11
2016-10-04T10:56:00.845Z,1025.09
2016-10-04T10:57:00.818Z,1025.14
2016-10-04T10:58:00.760Z,1025.13
2016-10-04T10:59:00.755Z,1025.08
2016-10-04T11:00:01.299Z,1025.1
2016-10-04T11:01:00.663Z,1025.12
2016-10-04T11:02:00.649Z,1025.13
2016-10-04T11:04:00.883Z,1025.05
2016-10-04T11:05:00.673Z,1025.02
2016-10-04T11:07:00.553Z,1024.97
2016-10-04T11:08:00.571Z,1025.05
2016-10-04T11:09:00.580Z,1025.03
2016-10-04T11:10:00.695Z,1025.04
2016-10-04T11:11:00.569Z,1025.03
2016-10-04T11:12:00.626Z,1025.05
2016-10-04T11:13:00.552Z,1025.12
2016-10-04T11:14:00.661Z,1025.05
2016-10-04T11:15:00.637Z,1025.03
2016-10-04T11:16:00.428Z,1025.06
2016-10-04T11:17:00.333Z,1024.99
2016-10-04T11:18:00.284Z,1025.09
2016-10-04T11:19:00.366Z,1025.08
2016-10-04T11:20:00.693Z,1025.15
2016-10-04T11:21:00.440Z,1025.16
2016-10-04T11:23:00.487Z,1025.12
2016-10-04T11:24:00.033Z,1025.13
2016-10-04T11:25:00.018Z,1025.2
2016-10-04T11:25:59.997Z,1025.24
2016-10-04T11:26:59.958Z,1025.23
2016-10-04T11:28:00.035Z,1025.28
2016-10-04T11:28:59.904Z,1025.34
2016-10-04T11:29:59.890Z,1025.29
2016-10-04T11:30:59.839Z,1025.29
2016-10-04T11:32:59.864Z,1025.31
2016-10-04T11:34:00.251Z,1025.31
2016-10-04T11:34:59.737Z,1025.26
2016-10-04T11:35:59.715Z,1025.3
2016-10-04T11:36:59.681Z,1025.32
2016-10-04T11:37:59.651Z,1025.28
2016-10-04T11:38:59.630Z,1025.29
2016-10-04T11:39:59.889Z,1025.34
2016-10-04T11:40:59.570Z,1025.29
2016-10-04T11:41:59.536Z,1025.33
2016-10-04T11:42:59.520Z,1025.3
2016-10-04T11:43:59.488Z,1025.25
2016-10-04T11:44:59.456Z,1025.34
2016-10-04T11:45:59.469Z,1025.3
2016-10-04T11:46:59.411Z,1025.25
2016-10-04T11:47:59.378Z,1025.3
2016-10-04T11:48:59.303Z,1025.34
2016-10-04T11:49:59.331Z,1025.32
2016-10-04T11:50:59.347Z,1025.27
2016-10-04T11:51:59.269Z,1025.34
2016-10-04T11:52:59.258Z,1025.31
2016-10-04T11:53:59.326Z,1025.29
2016-10-04T11:54:59.188Z,1025.27
2016-10-04T11:55:59.182Z,1025.26
2016-10-04T11:56:59.139Z,1025.25
2016-10-04T11:57:59.096Z,1025.29
2016-10-04T11:58:59.091Z,1025.21
2016-10-04T11:59:59.087Z,1025.24
2016-10-04T12:00:59.028Z,1025.27
2016-10-04T12:01:58.994Z,1025.25
2016-10-04T12:02:58.992Z,1025.28
2016-10-04T12:03:58.938Z,1025.29
2016-10-04T12:04:58.910Z,1025.23
2016-10-04T12:05:58.901Z,1025.2
2016-10-04T12:06:58.855Z,1025.2
2016-10-04T12:07:58.829Z,1025.17
2016-10-04T12:08:58.798Z,1025.21
2016-10-04T12:09:58.778Z,1025.12
2016-10-04T12:10:58.768Z,1025.13
2016-10-04T12:11:58.721Z,1025.11
2016-10-04T12:12:58.697Z,1025.12
2016-10-04T12:13:58.667Z,1025.03
2016-10-04T12:14:58.644Z,1025.04
2016-10-04T12:15:58.611Z,1024.97
2016-10-04T12:16:58.594Z,1025.02
2016-10-04T12:17:58.557Z,1025.09
2016-10-04T12:18:58.536Z,1025.08
2016-10-04T12:19:58.506Z,1025.07
2016-10-04T12:20:58.500Z,1025.06
2016-10-04T12:21:58.452Z,1025.03
2016-10-04T12:22:58.426Z,1025.09
2016-10-04T12:23:58.557Z,1025.11
2016-10-04T12:24:58.374Z,1025.11
2016-10-04T12:26:58.332Z,1025.12
2016-10-04T12:27:58.285Z,1025.13
2016-10-04T12:28:58.271Z,1025.13
2016-10-04T12:29:58.443Z,1025.14
2016-10-04T12:31:58.209Z,1025.17
2016-10-04T12:32:58.154Z,1025.12
2016-10-04T12:33:58.171Z,1025.11
2016-10-04T12:34:58.109Z,1025.15
2016-10-04T12:35:58.099Z,1025.16
2016-10-04T12:36:58.053Z,1025.13
2016-10-04T12:37:58.053Z,1025.13
2016-10-04T12:38:58.072Z,1025.15
2016-10-04T12:39:57.975Z,1025.09
2016-10-04T12:40:58.007Z,1025.07
2016-10-04T12:41:57.922Z,1025.13
2016-10-04T12:42:57.904Z,1025.07
2016-10-04T12:43:57.878Z,1025.05
2016-10-04T12:44:57.837Z,1025.01
2016-10-04T12:45:57.816Z,1024.95
2016-10-04T12:46:58.459Z,1025.02
2016-10-04T12:47:57.761Z,1024.95
2016-10-04T12:48:57.732Z,1024.98
2016-10-04T12:49:57.706Z,1025.05
2016-10-04T12:50:58.073Z,1025.03
2016-10-04T12:51:57.952Z,1025.03
2016-10-04T12:52:57.651Z,1025.05
2016-10-04T12:53:57.611Z,1025.14
2016-10-04T12:54:57.673Z,1025.1
2016-10-04T12:55:57.581Z,1025.15
2016-10-04T12:56:57.521Z,1025.14
2016-10-04T12:57:57.490Z,1025.16
2016-10-04T12:58:57.484Z,1025.22
2016-10-04T12:59:57.440Z,1025.15
2016-10-04T13:00:57.411Z,1025.13
2016-10-04T13:01:57.431Z,1025.21
2016-10-04T13:02:57.360Z,1025.13
2016-10-04T13:03:57.331Z,1025.18
2016-10-04T13:04:57.324Z,1025.22
2016-10-04T13:05:57.279Z,1025.14
2016-10-04T13:06:57.261Z,1025.17
2016-10-04T13:07:57.231Z,1025.1
2016-10-04T13:08:57.200Z,1025.12
2016-10-04T13:09:57.175Z,1025.13
2016-10-04T13:10:57.145Z,1025.13
2016-10-04T13:11:57.253Z,1025.1
2016-10-04T13:12:57.093Z,1025.11
2016-10-04T13:13:57.530Z,1025.11
2016-10-04T13:14:57.035Z,1025.02
2016-10-04T13:15:57.020Z,1025.02
2016-10-04T13:16:56.997Z,1025.02
2016-10-04T13:17:57.007Z,1024.98
2016-10-04T13:18:56.960Z,1025.05
2016-10-04T13:19:56.915Z,1025.04
2016-10-04T13:20:57.483Z,1025.04
2016-10-04T13:22:57.135Z,1025.07
2016-10-04T13:23:56.817Z,1025.07
2016-10-04T13:25:56.761Z,1025.06
2016-10-04T13:26:56.750Z,1025.07
2016-10-04T13:27:56.714Z,1025.13
2016-10-04T13:28:56.992Z,1025.14
2016-10-04T13:29:56.667Z,1025.13
2016-10-04T13:30:56.639Z,1025.18
2016-10-04T13:31:56.671Z,1025.17
2016-10-04T13:32:56.605Z,1025.14
2016-10-04T13:33:56.574Z,1025.09
2016-10-04T13:34:56.558Z,1025.06
2016-10-04T13:36:56.764Z,1024.98
2016-10-04T13:38:56.658Z,1025.02
2016-10-04T13:39:56.507Z,1025.05
2016-10-04T13:40:56.486Z,1025.06
2016-10-04T13:41:56.545Z,1025.01
2016-10-04T13:42:56.546Z,1024.98
2016-10-04T13:43:56.338Z,1025.05
2016-10-04T13:44:56.459Z,1025.03
2016-10-04T13:45:56.419Z,1025.08
2016-10-04T13:47:56.422Z,1025.07
2016-10-04T13:48:56.378Z,1025.06
2016-10-04T13:49:56.439Z,1025.07
2016-10-04T13:50:56.289Z,1025.03
2016-10-04T13:51:56.613Z,1025.02
2016-10-04T13:52:56.370Z,1025.06
2016-10-04T13:53:56.304Z,1025.08
2016-10-04T13:54:56.087Z,1025.09
2016-10-04T13:56:56.176Z,1025.06
2016-10-04T13:58:56.016Z,1025.03
2016-10-04T13:59:55.966Z,1025.02
2016-10-04T14:00:56.202Z,1025.01
2016-10-04T14:01:55.911Z,1025.01
2016-10-04T14:02:55.895Z,1025.02
2016-10-04T14:03:56.219Z,1025.02
2016-10-04T14:04:56.074Z,1024.96
2016-10-04T14:05:56.142Z,1025
2016-10-04T14:06:55.981Z,1025.02
2016-10-04T14:07:55.859Z,1024.99
2016-10-04T14:08:55.860Z,1025
2016-10-04T14:09:55.721Z,1025.02
2016-10-04T14:10:55.690Z,1025.02
2016-10-04T14:11:55.648Z,1025.07
2016-10-04T14:15:18.755Z,1025.03
2016-10-04T14:17:18.684Z,1025.08
2016-10-04T14:22:28.113Z,1025.08
2016-10-04T14:23:28.062Z,1025.1
2016-10-04T14:24:28.051Z,1025.1
2016-10-04T14:26:27.981Z,1025.06
2016-10-04T14:27:28.012Z,1025.08
2016-10-04T14:28:27.954Z,1025.12
2016-10-04T14:29:27.903Z,1025.08
2016-10-04T14:30:27.947Z,1025.07
2016-10-04T14:33:59.770Z,1025.06
2016-10-04T14:34:59.739Z,1025.04
2016-10-04T14:35:59.709Z,1025.04
2016-10-04T14:36:59.684Z,1025.04
2016-10-04T14:37:59.671Z,1025
2016-10-04T14:38:59.635Z,1025.01
2016-10-04T14:40:59.581Z,1025
2016-10-04T14:41:59.550Z,1024.96
2016-10-04T14:42:59.533Z,1024.96
2016-10-04T14:43:59.505Z,1024.92
2016-10-04T14:44:59.465Z,1024.96
2016-10-04T14:45:59.437Z,1024.96
2016-10-04T14:46:59.633Z,1024.98
2016-10-04T14:47:59.386Z,1025.02
2016-10-04T14:48:59.358Z,1024.95
2016-10-04T14:49:59.416Z,1024.93
2016-10-04T14:50:59.420Z,1024.95
2016-10-04T14:51:59.281Z,1024.87
2016-10-04T14:52:59.254Z,1024.89
2016-10-04T14:53:59.230Z,1024.9
2016-10-04T14:54:59.201Z,1024.87
2016-10-04T14:55:59.224Z,1024.88
2016-10-04T14:56:59.154Z,1024.88
2016-10-04T14:57:59.126Z,1024.89
2016-10-04T14:58:59.122Z,1024.89
2016-10-04T14:59:59.068Z,1024.9
2016-10-04T15:01:59.010Z,1024.97
2016-10-04T15:02:59.088Z,1024.97
2016-10-04T15:03:58.962Z,1024.99
2016-10-04T15:05:02.580Z,1025
2016-10-04T15:05:58.911Z,1024.98
2016-10-04T15:06:58.884Z,1024.98
2016-10-04T15:07:58.853Z,1024.97
2016-10-04T15:08:59.113Z,1024.95
2016-10-04T15:09:58.820Z,1024.91
2016-10-04T15:10:58.781Z,1024.93
2016-10-04T15:11:58.847Z,1024.95
2016-10-04T15:12:58.784Z,1024.98
2016-10-04T15:13:58.807Z,1024.98
2016-10-04T15:15:58.709Z,1024.93
2016-10-04T15:19:59.048Z,1024.88
2016-10-04T15:21:58.922Z,1024.82
2016-10-04T15:22:58.756Z,1024.83
2016-10-04T15:23:58.535Z,1024.82
2016-10-04T15:24:58.423Z,1024.88
2016-10-04T15:25:58.369Z,1024.89
2016-10-04T15:26:58.339Z,1024.86
2016-10-04T15:27:58.307Z,1024.85
2016-10-04T15:28:58.279Z,1024.83
2016-10-04T15:29:58.260Z,1024.88
2016-10-04T15:30:58.234Z,1024.91
2016-10-04T15:31:58.216Z,1024.86
2016-10-04T15:32:58.176Z,1024.92
2016-10-04T15:33:58.160Z,1024.91
2016-10-04T15:34:58.190Z,1024.84
2016-10-04T15:35:58.100Z,1024.88